sensor_id;sensor_type;location;lat;lon;timestamp;temperature;humidity
68813;DHT22;55808;48.112;11.552;2022-07-22T00:00:31;19.00;99.90
68813;DHT22;55808;48.112;11.552;2022-07-22T00:02:57;19.00;99.90
68813;DHT22;55808;48.112;11.552;2022-07-22T00:05:22;19.00;99.90
68813;DHT22;55808;48.112;11.552;2022-07-22T00:07:48;19.00;99.90
68813;DHT22;55808;48.112;11.552;2022-07-22T00:10:13;19.00;99.90
68813;DHT22;55808;48.112;11.552;2022-07-22T00:12:39;19.00;99.90
68813;DHT22;55808;48.112;11.552;2022-07-22T00:15:06;19.00;99.90
68813;DHT22;55808;48.112;11.552;2022-07-22T00:17:32;19.00;99.90
68813;DHT22;55808;48.112;11.552;2022-07-22T00:19:58;18.90;99.90
68813;DHT22;55808;48.112;11.552;2022-07-22T00:22:24;18.90;99.90
68813;DHT22;55808;48.112;11.552;2022-07-22T00:24:50;18.90;99.90
68813;DHT22;55808;48.112;11.552;2022-07-22T00:27:15;18.80;99.90
68813;DHT22;55808;48.112;11.552;2022-07-22T00:29:41;18.80;99.90
68813;DHT22;55808;48.112;11.552;2022-07-22T00:32:07;18.80;99.90
68813;DHT22;55808;48.112;11.552;2022-07-22T00:34:32;18.80;99.90
68813;DHT22;55808;48.112;11.552;2022-07-22T00:36:58;18.70;99.90
68813;DHT22;55808;48.112;11.552;2022-07-22T00:39:24;18.70;99.90
68813;DHT22;55808;48.112;11.552;2022-07-22T00:41:49;18.60;99.90
68813;DHT22;55808;48.112;11.552;2022-07-22T00:44:15;18.70;99.90
68813;DHT22;55808;48.112;11.552;2022-07-22T00:46:41;18.70;99.90
68813;DHT22;55808;48.112;11.552;2022-07-22T00:49:08;18.70;99.90
68813;DHT22;55808;48.112;11.552;2022-07-22T00:51:34;18.70;99.90
68813;DHT22;55808;48.112;11.552;2022-07-22T00:54:00;18.60;99.90
68813;DHT22;55808;48.112;11.552;2022-07-22T00:56:27;18.70;99.90
68813;DHT22;55808;48.112;11.552;2022-07-22T00:58:56;18.80;99.90
68813;DHT22;55808;48.112;11.552;2022-07-22T01:01:22;18.80;99.90
68813;DHT22;55808;48.112;11.552;2022-07-22T01:03:48;18.70;99.90
68813;DHT22;55808;48.112;11.552;2022-07-22T01:06:14;18.70;99.90
68813;DHT22;55808;48.112;11.552;2022-07-22T01:08:40;18.80;99.90
68813;DHT22;55808;48.112;11.552;2022-07-22T01:11:08;18.70;99.90
68813;DHT22;55808;48.112;11.552;2022-07-22T01:13:34;18.60;99.90
68813;DHT22;55808;48.112;11.552;2022-07-22T01:16:00;18.60;99.90
68813;DHT22;55808;48.112;11.552;2022-07-22T01:18:25;18.60;99.90
68813;DHT22;55808;48.112;11.552;2022-07-22T01:20:51;18.60;99.90
68813;DHT22;55808;48.112;11.552;2022-07-22T01:23:16;18.50;99.90
68813;DHT22;55808;48.112;11.552;2022-07-22T01:25:42;18.50;99.90
68813;DHT22;55808;48.112;11.552;2022-07-22T01:28:08;18.50;99.90
68813;DHT22;55808;48.112;11.552;2022-07-22T01:30:33;18.40;99.90
68813;DHT22;55808;48.112;11.552;2022-07-22T01:32:59;18.40;99.90
68813;DHT22;55808;48.112;11.552;2022-07-22T01:35:25;18.30;99.90
68813;DHT22;55808;48.112;11.552;2022-07-22T01:37:50;18.30;99.90
68813;DHT22;55808;48.112;11.552;2022-07-22T01:40:16;18.30;99.90
68813;DHT22;55808;48.112;11.552;2022-07-22T01:42:41;18.20;99.90
68813;DHT22;55808;48.112;11.552;2022-07-22T01:45:08;18.20;99.90
68813;DHT22;55808;48.112;11.552;2022-07-22T01:47:36;18.20;99.90
68813;DHT22;55808;48.112;11.552;2022-07-22T01:50:04;18.20;99.90
68813;DHT22;55808;48.112;11.552;2022-07-22T01:52:30;18.20;99.90
68813;DHT22;55808;48.112;11.552;2022-07-22T01:54:56;18.30;99.90
68813;DHT22;55808;48.112;11.552;2022-07-22T01:57:22;18.40;99.90
68813;DHT22;55808;48.112;11.552;2022-07-22T01:59:47;18.30;99.90
68813;DHT22;55808;48.112;11.552;2022-07-22T02:02:13;18.30;99.90
68813;DHT22;55808;48.112;11.552;2022-07-22T02:04:38;18.20;99.90
68813;DHT22;55808;48.112;11.552;2022-07-22T02:07:04;18.20;99.90
68813;DHT22;55808;48.112;11.552;2022-07-22T02:09:30;18.20;99.90
68813;DHT22;55808;48.112;11.552;2022-07-22T02:11:55;18.30;99.90
68813;DHT22;55808;48.112;11.552;2022-07-22T02:14:21;18.20;99.90
68813;DHT22;55808;48.112;11.552;2022-07-22T02:16:47;18.20;99.90
68813;DHT22;55808;48.112;11.552;2022-07-22T02:19:12;18.20;99.90
68813;DHT22;55808;48.112;11.552;2022-07-22T02:21:38;18.10;99.90
68813;DHT22;55808;48.112;11.552;2022-07-22T02:24:04;18.10;99.90
68813;DHT22;55808;48.112;11.552;2022-07-22T02:26:30;18.10;99.90
68813;DHT22;55808;48.112;11.552;2022-07-22T02:28:56;18.00;99.90
68813;DHT22;55808;48.112;11.552;2022-07-22T02:31:22;18.10;99.90
68813;DHT22;55808;48.112;11.552;2022-07-22T02:33:48;18.00;99.90
68813;DHT22;55808;48.112;11.552;2022-07-22T02:36:14;18.10;99.90
68813;DHT22;55808;48.112;11.552;2022-07-22T02:38:39;18.10;99.90
68813;DHT22;55808;48.112;11.552;2022-07-22T02:41:05;18.00;99.90
68813;DHT22;55808;48.112;11.552;2022-07-22T02:43:31;18.00;99.90
68813;DHT22;55808;48.112;11.552;2022-07-22T02:45:56;18.00;99.90
68813;DHT22;55808;48.112;11.552;2022-07-22T02:48:22;18.00;99.90
68813;DHT22;55808;48.112;11.552;2022-07-22T02:50:48;18.00;99.90
68813;DHT22;55808;48.112;11.552;2022-07-22T02:53:14;18.00;99.90
68813;DHT22;55808;48.112;11.552;2022-07-22T02:55:40;18.00;99.90
68813;DHT22;55808;48.112;11.552;2022-07-22T02:58:07;17.90;99.90
68813;DHT22;55808;48.112;11.552;2022-07-22T03:00:34;17.90;99.90
68813;DHT22;55808;48.112;11.552;2022-07-22T03:03:00;17.90;99.90
68813;DHT22;55808;48.112;11.552;2022-07-22T03:05:25;17.80;99.90
68813;DHT22;55808;48.112;11.552;2022-07-22T03:07:51;17.80;99.90
68813;DHT22;55808;48.112;11.552;2022-07-22T03:10:17;17.90;99.90
68813;DHT22;55808;48.112;11.552;2022-07-22T03:12:42;18.00;99.90
68813;DHT22;55808;48.112;11.552;2022-07-22T03:15:08;18.00;99.90
68813;DHT22;55808;48.112;11.552;2022-07-22T03:17:35;18.00;99.90
68813;DHT22;55808;48.112;11.552;2022-07-22T03:20:05;18.10;99.90
68813;DHT22;55808;48.112;11.552;2022-07-22T03:22:31;18.00;99.90
68813;DHT22;55808;48.112;11.552;2022-07-22T03:24:57;18.00;99.90
68813;DHT22;55808;48.112;11.552;2022-07-22T03:27:22;17.90;99.90
68813;DHT22;55808;48.112;11.552;2022-07-22T03:29:48;18.10;99.90
68813;DHT22;55808;48.112;11.552;2022-07-22T03:32:14;18.10;99.90
68813;DHT22;55808;48.112;11.552;2022-07-22T03:34:40;18.00;99.90
68813;DHT22;55808;48.112;11.552;2022-07-22T03:37:05;17.80;99.90
68813;DHT22;55808;48.112;11.552;2022-07-22T03:39:31;17.70;99.90
68813;DHT22;55808;48.112;11.552;2022-07-22T03:41:57;17.60;99.90
68813;DHT22;55808;48.112;11.552;2022-07-22T03:44:22;17.80;99.90
68813;DHT22;55808;48.112;11.552;2022-07-22T03:46:48;17.90;99.90
68813;DHT22;55808;48.112;11.552;2022-07-22T03:49:13;17.90;99.90
68813;DHT22;55808;48.112;11.552;2022-07-22T03:51:39;17.80;99.90
68813;DHT22;55808;48.112;11.552;2022-07-22T03:54:05;17.80;99.90
68813;DHT22;55808;48.112;11.552;2022-07-22T03:56:31;17.80;99.90
68813;DHT22;55808;48.112;11.552;2022-07-22T03:58:56;17.70;99.90
68813;DHT22;55808;48.112;11.552;2022-07-22T04:01:22;17.70;99.90
68813;DHT22;55808;48.112;11.552;2022-07-22T04:03:48;17.80;99.90
68813;DHT22;55808;48.112;11.552;2022-07-22T04:06:15;17.90;99.90
68813;DHT22;55808;48.112;11.552;2022-07-22T04:08:41;17.80;99.90
68813;DHT22;55808;48.112;11.552;2022-07-22T04:11:06;17.80;99.90
68813;DHT22;55808;48.112;11.552;2022-07-22T04:13:32;17.70;99.90
68813;DHT22;55808;48.112;11.552;2022-07-22T04:15:58;17.70;99.90
68813;DHT22;55808;48.112;11.552;2022-07-22T04:18:23;17.70;99.90
68813;DHT22;55808;48.112;11.552;2022-07-22T04:20:49;17.70;99.90
68813;DHT22;55808;48.112;11.552;2022-07-22T04:23:15;17.60;99.90
68813;DHT22;55808;48.112;11.552;2022-07-22T04:25:41;17.70;99.90
68813;DHT22;55808;48.112;11.552;2022-07-22T04:28:06;17.80;99.90
68813;DHT22;55808;48.112;11.552;2022-07-22T04:30:32;17.90;99.90
68813;DHT22;55808;48.112;11.552;2022-07-22T04:32:58;17.90;99.90
68813;DHT22;55808;48.112;11.552;2022-07-22T04:35:24;18.00;99.90
68813;DHT22;55808;48.112;11.552;2022-07-22T04:37:50;17.90;99.90
68813;DHT22;55808;48.112;11.552;2022-07-22T04:40:16;17.80;99.90
68813;DHT22;55808;48.112;11.552;2022-07-22T04:42:41;17.90;99.90
68813;DHT22;55808;48.112;11.552;2022-07-22T04:45:07;17.90;99.90
68813;DHT22;55808;48.112;11.552;2022-07-22T04:47:33;18.00;99.90
68813;DHT22;55808;48.112;11.552;2022-07-22T04:49:59;18.00;99.90
68813;DHT22;55808;48.112;11.552;2022-07-22T04:52:24;18.10;99.90
68813;DHT22;55808;48.112;11.552;2022-07-22T04:54:50;18.10;99.90
68813;DHT22;55808;48.112;11.552;2022-07-22T04:57:16;18.20;99.90
68813;DHT22;55808;48.112;11.552;2022-07-22T04:59:41;18.20;99.90
68813;DHT22;55808;48.112;11.552;2022-07-22T05:02:07;18.20;99.90
68813;DHT22;55808;48.112;11.552;2022-07-22T05:04:33;18.20;99.90
68813;DHT22;55808;48.112;11.552;2022-07-22T05:06:59;18.20;99.90
68813;DHT22;55808;48.112;11.552;2022-07-22T05:09:24;18.10;99.90
68813;DHT22;55808;48.112;11.552;2022-07-22T05:11:50;18.20;99.90
68813;DHT22;55808;48.112;11.552;2022-07-22T05:14:16;18.10;99.90
68813;DHT22;55808;48.112;11.552;2022-07-22T05:16:41;18.30;99.90
68813;DHT22;55808;48.112;11.552;2022-07-22T05:19:07;18.30;99.90
68813;DHT22;55808;48.112;11.552;2022-07-22T05:21:33;18.40;99.90
68813;DHT22;55808;48.112;11.552;2022-07-22T05:23:59;18.50;99.90
68813;DHT22;55808;48.112;11.552;2022-07-22T05:26:24;18.50;99.90
68813;DHT22;55808;48.112;11.552;2022-07-22T05:28:50;18.50;99.90
68813;DHT22;55808;48.112;11.552;2022-07-22T05:31:16;18.60;99.90
68813;DHT22;55808;48.112;11.552;2022-07-22T05:33:41;18.60;99.90
68813;DHT22;55808;48.112;11.552;2022-07-22T05:36:07;18.60;99.90
68813;DHT22;55808;48.112;11.552;2022-07-22T05:38:35;18.70;99.90
68813;DHT22;55808;48.112;11.552;2022-07-22T05:41:01;18.80;99.90
68813;DHT22;55808;48.112;11.552;2022-07-22T05:43:27;18.80;99.90
68813;DHT22;55808;48.112;11.552;2022-07-22T05:45:53;18.90;99.90
68813;DHT22;55808;48.112;11.552;2022-07-22T05:48:19;18.90;99.90
68813;DHT22;55808;48.112;11.552;2022-07-22T05:50:45;18.90;99.90
68813;DHT22;55808;48.112;11.552;2022-07-22T05:53:10;19.00;99.90
68813;DHT22;55808;48.112;11.552;2022-07-22T05:55:36;19.00;99.90
68813;DHT22;55808;48.112;11.552;2022-07-22T05:58:02;19.00;99.90
68813;DHT22;55808;48.112;11.552;2022-07-22T06:00:28;19.10;99.90
68813;DHT22;55808;48.112;11.552;2022-07-22T06:02:53;19.20;99.90
68813;DHT22;55808;48.112;11.552;2022-07-22T06:05:19;19.20;99.90
68813;DHT22;55808;48.112;11.552;2022-07-22T06:07:45;19.20;99.90
68813;DHT22;55808;48.112;11.552;2022-07-22T06:10:11;19.40;99.90
68813;DHT22;55808;48.112;11.552;2022-07-22T06:12:36;19.40;99.90
68813;DHT22;55808;48.112;11.552;2022-07-22T06:15:03;19.40;99.90
68813;DHT22;55808;48.112;11.552;2022-07-22T06:17:28;19.40;99.90
68813;DHT22;55808;48.112;11.552;2022-07-22T06:19:54;19.50;99.90
68813;DHT22;55808;48.112;11.552;2022-07-22T06:22:20;19.50;99.90
68813;DHT22;55808;48.112;11.552;2022-07-22T06:24:45;19.50;99.90
68813;DHT22;55808;48.112;11.552;2022-07-22T06:27:11;19.50;99.90
68813;DHT22;55808;48.112;11.552;2022-07-22T06:29:37;19.60;99.90
68813;DHT22;55808;48.112;11.552;2022-07-22T06:32:03;19.60;99.90
68813;DHT22;55808;48.112;11.552;2022-07-22T06:34:29;19.70;99.90
68813;DHT22;55808;48.112;11.552;2022-07-22T06:36:55;19.70;99.90
68813;DHT22;55808;48.112;11.552;2022-07-22T06:39:21;19.90;99.90
68813;DHT22;55808;48.112;11.552;2022-07-22T06:41:47;19.90;99.90
68813;DHT22;55808;48.112;11.552;2022-07-22T06:44:12;20.00;99.90
68813;DHT22;55808;48.112;11.552;2022-07-22T06:46:38;20.10;99.90
68813;DHT22;55808;48.112;11.552;2022-07-22T06:49:04;20.10;99.90
68813;DHT22;55808;48.112;11.552;2022-07-22T06:51:29;20.20;99.90
68813;DHT22;55808;48.112;11.552;2022-07-22T06:53:56;20.20;99.90
68813;DHT22;55808;48.112;11.552;2022-07-22T06:56:23;20.30;99.90
68813;DHT22;55808;48.112;11.552;2022-07-22T06:58:49;20.40;99.90
68813;DHT22;55808;48.112;11.552;2022-07-22T07:01:14;20.40;99.90
68813;DHT22;55808;48.112;11.552;2022-07-22T07:03:40;20.50;99.90
68813;DHT22;55808;48.112;11.552;2022-07-22T07:06:08;20.50;99.90
68813;DHT22;55808;48.112;11.552;2022-07-22T07:08:37;20.60;99.90
68813;DHT22;55808;48.112;11.552;2022-07-22T07:11:02;20.60;99.90
68813;DHT22;55808;48.112;11.552;2022-07-22T07:13:29;20.60;99.90
68813;DHT22;55808;48.112;11.552;2022-07-22T07:15:55;20.70;99.90
68813;DHT22;55808;48.112;11.552;2022-07-22T07:18:21;20.80;99.90
68813;DHT22;55808;48.112;11.552;2022-07-22T07:20:46;20.90;99.90
68813;DHT22;55808;48.112;11.552;2022-07-22T07:23:12;21.00;99.90
68813;DHT22;55808;48.112;11.552;2022-07-22T07:25:38;21.00;99.90
68813;DHT22;55808;48.112;11.552;2022-07-22T07:28:04;21.10;99.90
68813;DHT22;55808;48.112;11.552;2022-07-22T07:30:30;21.10;99.90
68813;DHT22;55808;48.112;11.552;2022-07-22T07:32:55;21.30;99.90
68813;DHT22;55808;48.112;11.552;2022-07-22T07:35:21;21.30;99.90
68813;DHT22;55808;48.112;11.552;2022-07-22T07:37:47;21.40;99.90
68813;DHT22;55808;48.112;11.552;2022-07-22T07:40:13;21.40;99.90
68813;DHT22;55808;48.112;11.552;2022-07-22T07:42:39;21.50;99.90
68813;DHT22;55808;48.112;11.552;2022-07-22T07:45:05;21.60;99.90
68813;DHT22;55808;48.112;11.552;2022-07-22T07:47:31;21.70;99.90
68813;DHT22;55808;48.112;11.552;2022-07-22T07:49:57;21.90;99.90
68813;DHT22;55808;48.112;11.552;2022-07-22T07:52:25;21.90;99.90
68813;DHT22;55808;48.112;11.552;2022-07-22T07:54:51;21.90;99.90
68813;DHT22;55808;48.112;11.552;2022-07-22T07:57:17;21.90;99.90
68813;DHT22;55808;48.112;11.552;2022-07-22T07:59:43;21.90;99.90
68813;DHT22;55808;48.112;11.552;2022-07-22T08:02:09;22.10;99.90
68813;DHT22;55808;48.112;11.552;2022-07-22T08:04:36;22.00;99.90
68813;DHT22;55808;48.112;11.552;2022-07-22T08:07:03;22.10;99.90
68813;DHT22;55808;48.112;11.552;2022-07-22T08:09:29;22.20;99.90
68813;DHT22;55808;48.112;11.552;2022-07-22T08:11:54;22.30;99.90
68813;DHT22;55808;48.112;11.552;2022-07-22T08:14:20;22.30;99.90
68813;DHT22;55808;48.112;11.552;2022-07-22T08:16:46;22.00;99.90
68813;DHT22;55808;48.112;11.552;2022-07-22T08:19:11;22.00;99.90
68813;DHT22;55808;48.112;11.552;2022-07-22T08:21:37;22.30;99.90
68813;DHT22;55808;48.112;11.552;2022-07-22T08:24:03;22.40;99.90
68813;DHT22;55808;48.112;11.552;2022-07-22T08:26:28;22.30;99.90
68813;DHT22;55808;48.112;11.552;2022-07-22T08:28:54;22.40;99.90
68813;DHT22;55808;48.112;11.552;2022-07-22T08:31:20;22.50;99.90
68813;DHT22;55808;48.112;11.552;2022-07-22T08:33:46;22.70;99.90
68813;DHT22;55808;48.112;11.552;2022-07-22T08:36:11;22.70;99.90
68813;DHT22;55808;48.112;11.552;2022-07-22T08:38:37;22.80;99.90
68813;DHT22;55808;48.112;11.552;2022-07-22T08:41:03;23.00;99.90
68813;DHT22;55808;48.112;11.552;2022-07-22T08:43:30;22.90;99.90
68813;DHT22;55808;48.112;11.552;2022-07-22T08:45:57;22.80;99.90
68813;DHT22;55808;48.112;11.552;2022-07-22T08:48:23;22.90;99.90
68813;DHT22;55808;48.112;11.552;2022-07-22T08:50:48;23.10;99.90
68813;DHT22;55808;48.112;11.552;2022-07-22T08:53:14;23.10;99.90
68813;DHT22;55808;48.112;11.552;2022-07-22T08:55:45;23.20;99.90
68813;DHT22;55808;48.112;11.552;2022-07-22T08:58:11;23.20;99.90
68813;DHT22;55808;48.112;11.552;2022-07-22T09:00:37;23.30;99.90
68813;DHT22;55808;48.112;11.552;2022-07-22T09:03:24;23.30;99.90
68813;DHT22;55808;48.112;11.552;2022-07-22T09:05:54;23.40;99.90
68813;DHT22;55808;48.112;11.552;2022-07-22T09:08:21;23.40;99.90
68813;DHT22;55808;48.112;11.552;2022-07-22T09:10:47;23.40;99.90
68813;DHT22;55808;48.112;11.552;2022-07-22T09:13:15;23.70;99.90
68813;DHT22;55808;48.112;11.552;2022-07-22T09:15:51;23.70;99.90
68813;DHT22;55808;48.112;11.552;2022-07-22T09:18:17;23.60;99.90
68813;DHT22;55808;48.112;11.552;2022-07-22T09:20:43;23.70;99.90
68813;DHT22;55808;48.112;11.552;2022-07-22T09:23:19;23.80;99.90
68813;DHT22;55808;48.112;11.552;2022-07-22T09:25:50;24.00;99.90
68813;DHT22;55808;48.112;11.552;2022-07-22T09:28:21;24.20;99.90
68813;DHT22;55808;48.112;11.552;2022-07-22T09:30:53;24.30;99.90
68813;DHT22;55808;48.112;11.552;2022-07-22T09:33:19;23.90;99.90
68813;DHT22;55808;48.112;11.552;2022-07-22T09:35:47;24.10;99.90
68813;DHT22;55808;48.112;11.552;2022-07-22T09:38:19;24.30;99.90
68813;DHT22;55808;48.112;11.552;2022-07-22T09:40:47;24.50;99.90
68813;DHT22;55808;48.112;11.552;2022-07-22T09:43:18;24.70;99.90
68813;DHT22;55808;48.112;11.552;2022-07-22T09:45:55;24.80;99.90
68813;DHT22;55808;48.112;11.552;2022-07-22T09:48:26;24.80;99.90
68813;DHT22;55808;48.112;11.552;2022-07-22T09:50:54;24.70;99.90
68813;DHT22;55808;48.112;11.552;2022-07-22T09:53:22;24.90;98.20
68813;DHT22;55808;48.112;11.552;2022-07-22T09:55:48;24.90;97.30
68813;DHT22;55808;48.112;11.552;2022-07-22T09:58:14;24.90;96.60
68813;DHT22;55808;48.112;11.552;2022-07-22T10:00:41;25.10;94.00
68813;DHT22;55808;48.112;11.552;2022-07-22T10:03:10;25.10;94.70
68813;DHT22;55808;48.112;11.552;2022-07-22T10:05:39;25.40;94.30
68813;DHT22;55808;48.112;11.552;2022-07-22T10:08:06;25.40;93.20
68813;DHT22;55808;48.112;11.552;2022-07-22T10:10:33;25.50;92.80
68813;DHT22;55808;48.112;11.552;2022-07-22T10:13:01;25.50;92.80
68813;DHT22;55808;48.112;11.552;2022-07-22T10:15:28;25.60;92.00
68813;DHT22;55808;48.112;11.552;2022-07-22T10:17:56;25.90;90.80
68813;DHT22;55808;48.112;11.552;2022-07-22T10:20:29;25.90;89.80
68813;DHT22;55808;48.112;11.552;2022-07-22T10:25:30;26.20;89.90
68813;DHT22;55808;48.112;11.552;2022-07-22T10:28:01;26.20;89.10
68813;DHT22;55808;48.112;11.552;2022-07-22T10:30:36;26.30;89.80
68813;DHT22;55808;48.112;11.552;2022-07-22T10:35:57;26.70;87.80
68813;DHT22;55808;48.112;11.552;2022-07-22T10:38:24;27.00;85.30
68813;DHT22;55808;48.112;11.552;2022-07-22T10:40:59;27.00;81.50
68813;DHT22;55808;48.112;11.552;2022-07-22T10:43:27;27.60;80.90
68813;DHT22;55808;48.112;11.552;2022-07-22T10:45:57;28.00;85.10
68813;DHT22;55808;48.112;11.552;2022-07-22T10:51:14;30.20;69.50
68813;DHT22;55808;48.112;11.552;2022-07-22T10:53:44;30.70;67.70
68813;DHT22;55808;48.112;11.552;2022-07-22T10:56:25;31.40;65.80
68813;DHT22;55808;48.112;11.552;2022-07-22T10:58:57;31.20;62.60
68813;DHT22;55808;48.112;11.552;2022-07-22T11:01:28;31.70;64.00
68813;DHT22;55808;48.112;11.552;2022-07-22T11:03:56;32.40;60.60
68813;DHT22;55808;48.112;11.552;2022-07-22T11:06:31;32.00;61.00
68813;DHT22;55808;48.112;11.552;2022-07-22T11:09:02;32.50;60.50
68813;DHT22;55808;48.112;11.552;2022-07-22T11:11:34;32.90;59.90
68813;DHT22;55808;48.112;11.552;2022-07-22T11:14:01;32.80;59.60
68813;DHT22;55808;48.112;11.552;2022-07-22T11:16:28;33.40;59.00
68813;DHT22;55808;48.112;11.552;2022-07-22T11:18:59;33.00;59.60
68813;DHT22;55808;48.112;11.552;2022-07-22T11:21:28;33.40;59.10
68813;DHT22;55808;48.112;11.552;2022-07-22T11:23:57;32.60;58.20
68813;DHT22;55808;48.112;11.552;2022-07-22T11:26:45;31.70;58.50
68813;DHT22;55808;48.112;11.552;2022-07-22T11:29:16;31.90;61.60
68813;DHT22;55808;48.112;11.552;2022-07-22T11:31:42;32.10;58.70
68813;DHT22;55808;48.112;11.552;2022-07-22T11:34:15;32.30;61.60
68813;DHT22;55808;48.112;11.552;2022-07-22T11:36:43;32.30;58.70
68813;DHT22;55808;48.112;11.552;2022-07-22T11:39:11;32.10;59.30
68813;DHT22;55808;48.112;11.552;2022-07-22T11:41:37;32.10;58.00
68813;DHT22;55808;48.112;11.552;2022-07-22T11:44:04;32.60;58.50
68813;DHT22;55808;48.112;11.552;2022-07-22T11:46:38;32.80;59.40
68813;DHT22;55808;48.112;11.552;2022-07-22T11:49:05;33.10;59.00
68813;DHT22;55808;48.112;11.552;2022-07-22T11:51:32;32.90;58.60
68813;DHT22;55808;48.112;11.552;2022-07-22T11:53:59;33.30;58.40
68813;DHT22;55808;48.112;11.552;2022-07-22T11:56:25;32.50;56.20
68813;DHT22;55808;48.112;11.552;2022-07-22T11:58:52;32.30;57.30
68813;DHT22;55808;48.112;11.552;2022-07-22T12:01:27;32.70;57.20
68813;DHT22;55808;48.112;11.552;2022-07-22T12:03:55;33.00;56.70
68813;DHT22;55808;48.112;11.552;2022-07-22T12:06:22;32.40;59.80
68813;DHT22;55808;48.112;11.552;2022-07-22T12:08:51;33.30;58.00
68813;DHT22;55808;48.112;11.552;2022-07-22T12:11:19;33.70;61.20
68813;DHT22;55808;48.112;11.552;2022-07-22T12:13:48;34.10;58.80
68813;DHT22;55808;48.112;11.552;2022-07-22T12:16:25;34.30;54.70
68813;DHT22;55808;48.112;11.552;2022-07-22T12:18:58;34.50;56.40
68813;DHT22;55808;48.112;11.552;2022-07-22T12:21:26;34.40;55.80
68813;DHT22;55808;48.112;11.552;2022-07-22T12:23:56;34.30;55.30
68813;DHT22;55808;48.112;11.552;2022-07-22T12:26:43;34.10;55.50
68813;DHT22;55808;48.112;11.552;2022-07-22T12:31:52;34.90;56.30
68813;DHT22;55808;48.112;11.552;2022-07-22T12:34:42;34.40;55.80
68813;DHT22;55808;48.112;11.552;2022-07-22T12:39:55;33.30;57.90
68813;DHT22;55808;48.112;11.552;2022-07-22T12:42:21;32.80;57.00
68813;DHT22;55808;48.112;11.552;2022-07-22T12:44:58;32.30;58.30
68813;DHT22;55808;48.112;11.552;2022-07-22T12:52:49;33.20;57.10
68813;DHT22;55808;48.112;11.552;2022-07-22T12:55:15;33.20;63.00
68813;DHT22;55808;48.112;11.552;2022-07-22T12:57:41;33.50;56.90
68813;DHT22;55808;48.112;11.552;2022-07-22T13:00:08;33.50;59.10
68813;DHT22;55808;48.112;11.552;2022-07-22T13:02:34;33.40;56.50
68813;DHT22;55808;48.112;11.552;2022-07-22T13:05:00;33.60;57.00
68813;DHT22;55808;48.112;11.552;2022-07-22T13:07:25;33.50;58.80
68813;DHT22;55808;48.112;11.552;2022-07-22T13:09:51;33.30;56.00
68813;DHT22;55808;48.112;11.552;2022-07-22T13:12:16;33.10;56.80
68813;DHT22;55808;48.112;11.552;2022-07-22T13:14:42;33.00;56.60
68813;DHT22;55808;48.112;11.552;2022-07-22T13:17:10;32.90;59.40
68813;DHT22;55808;48.112;11.552;2022-07-22T13:19:37;33.20;58.60
68813;DHT22;55808;48.112;11.552;2022-07-22T13:22:03;33.30;59.50
68813;DHT22;55808;48.112;11.552;2022-07-22T13:24:29;33.40;58.40
68813;DHT22;55808;48.112;11.552;2022-07-22T13:26:54;33.60;62.60
68813;DHT22;55808;48.112;11.552;2022-07-22T13:29:20;33.40;58.30
68813;DHT22;55808;48.112;11.552;2022-07-22T13:31:46;33.20;61.70
68813;DHT22;55808;48.112;11.552;2022-07-22T13:34:14;32.90;59.00
68813;DHT22;55808;48.112;11.552;2022-07-22T13:36:40;32.90;58.30
68813;DHT22;55808;48.112;11.552;2022-07-22T13:39:06;32.90;61.00
68813;DHT22;55808;48.112;11.552;2022-07-22T13:41:31;32.60;59.70
68813;DHT22;55808;48.112;11.552;2022-07-22T13:43:57;32.60;59.90
68813;DHT22;55808;48.112;11.552;2022-07-22T13:46:23;32.60;61.00
68813;DHT22;55808;48.112;11.552;2022-07-22T13:48:48;32.60;59.30
68813;DHT22;55808;48.112;11.552;2022-07-22T13:51:14;32.70;59.10
68813;DHT22;55808;48.112;11.552;2022-07-22T13:53:41;32.90;62.60
68813;DHT22;55808;48.112;11.552;2022-07-22T13:56:08;32.60;58.60
68813;DHT22;55808;48.112;11.552;2022-07-22T13:58:38;32.40;58.20
68813;DHT22;55808;48.112;11.552;2022-07-22T14:01:07;32.30;64.50
68813;DHT22;55808;48.112;11.552;2022-07-22T14:03:34;32.00;60.70
68813;DHT22;55808;48.112;11.552;2022-07-22T14:05:59;31.90;61.90
68813;DHT22;55808;48.112;11.552;2022-07-22T14:08:25;31.80;59.20
68813;DHT22;55808;48.112;11.552;2022-07-22T14:10:50;31.90;62.80
68813;DHT22;55808;48.112;11.552;2022-07-22T14:13:16;32.00;60.00
68813;DHT22;55808;48.112;11.552;2022-07-22T14:15:42;32.10;58.80
68813;DHT22;55808;48.112;11.552;2022-07-22T14:18:08;32.10;59.20
68813;DHT22;55808;48.112;11.552;2022-07-22T14:20:35;32.00;60.20
68813;DHT22;55808;48.112;11.552;2022-07-22T14:23:01;32.10;59.70
68813;DHT22;55808;48.112;11.552;2022-07-22T14:25:27;32.00;60.00
68813;DHT22;55808;48.112;11.552;2022-07-22T14:27:53;31.70;59.30
68813;DHT22;55808;48.112;11.552;2022-07-22T14:30:18;31.80;60.90
68813;DHT22;55808;48.112;11.552;2022-07-22T14:32:44;32.00;60.20
68813;DHT22;55808;48.112;11.552;2022-07-22T14:35:10;32.10;61.80
68813;DHT22;55808;48.112;11.552;2022-07-22T14:37:35;32.00;59.70
68813;DHT22;55808;48.112;11.552;2022-07-22T14:40:02;32.10;60.50
68813;DHT22;55808;48.112;11.552;2022-07-22T14:42:28;31.80;59.40
68813;DHT22;55808;48.112;11.552;2022-07-22T14:44:53;32.00;60.60
68813;DHT22;55808;48.112;11.552;2022-07-22T14:47:19;32.00;59.90
68813;DHT22;55808;48.112;11.552;2022-07-22T14:49:44;32.10;61.60
68813;DHT22;55808;48.112;11.552;2022-07-22T14:52:10;32.30;60.00
68813;DHT22;55808;48.112;11.552;2022-07-22T14:54:36;32.80;60.70
68813;DHT22;55808;48.112;11.552;2022-07-22T14:57:02;33.00;60.40
68813;DHT22;55808;48.112;11.552;2022-07-22T14:59:28;33.10;59.80
68813;DHT22;55808;48.112;11.552;2022-07-22T15:01:55;33.10;60.00
68813;DHT22;55808;48.112;11.552;2022-07-22T15:04:20;32.60;58.20
68813;DHT22;55808;48.112;11.552;2022-07-22T15:06:46;32.60;60.10
68813;DHT22;55808;48.112;11.552;2022-07-22T15:09:12;32.70;61.60
68813;DHT22;55808;48.112;11.552;2022-07-22T15:11:38;32.70;60.10
68813;DHT22;55808;48.112;11.552;2022-07-22T15:14:03;32.80;60.60
68813;DHT22;55808;48.112;11.552;2022-07-22T15:16:29;32.80;60.90
68813;DHT22;55808;48.112;11.552;2022-07-22T15:18:55;32.60;60.10
68813;DHT22;55808;48.112;11.552;2022-07-22T15:21:20;32.60;60.40
68813;DHT22;55808;48.112;11.552;2022-07-22T15:23:47;32.60;60.90
68813;DHT22;55808;48.112;11.552;2022-07-22T15:26:13;32.70;60.00
68813;DHT22;55808;48.112;11.552;2022-07-22T15:28:39;32.80;60.60
68813;DHT22;55808;48.112;11.552;2022-07-22T15:31:05;32.80;59.00